createdAt,value
2022-08-19T00:00:26.000Z,290.27
2022-08-19T00:01:53.000Z,290.34
2022-08-19T00:03:59.000Z,290.4
2022-08-19T00:05:26.000Z,290.4
2022-08-19T00:07:32.000Z,290.4
2022-08-19T00:08:59.000Z,290.46
2022-08-19T00:11:05.000Z,290.46
2022-08-19T00:12:36.000Z,290.46
2022-08-19T00:14:50.000Z,290.4
2022-08-19T00:16:17.000Z,290.4
2022-08-19T00:18:29.000Z,290.46
2022-08-19T00:19:55.000Z,290.52
2022-08-19T00:22:02.000Z,290.59
2022-08-19T00:24:53.000Z,290.59
2022-08-19T00:26:21.000Z,290.65
2022-08-19T00:28:27.000Z,290.65
2022-08-19T00:29:54.000Z,290.65
2022-08-19T00:32:00.000Z,290.65
2022-08-19T00:33:29.000Z,290.59
2022-08-19T00:35:37.000Z,290.52
2022-08-19T00:37:03.000Z,290.59
2022-08-19T00:39:12.000Z,290.59
2022-08-19T00:40:38.000Z,290.65
2022-08-19T00:42:45.000Z,290.59
2022-08-19T00:44:11.000Z,290.59
2022-08-19T00:46:17.000Z,290.59
2022-08-19T00:47:44.000Z,290.65
2022-08-19T00:49:50.000Z,290.65
2022-08-19T00:51:16.000Z,290.71
2022-08-19T00:53:23.000Z,290.71
2022-08-19T00:54:49.000Z,290.77
2022-08-19T00:56:57.000Z,290.77
2022-08-19T00:58:23.000Z,290.84
2022-08-19T01:00:29.000Z,290.96
2022-08-19T01:03:20.000Z,291.09
2022-08-19T01:04:47.000Z,291.15
2022-08-19T01:06:53.000Z,291.27
2022-08-19T01:08:19.000Z,291.34
2022-08-19T01:10:25.000Z,291.34
2022-08-19T01:11:52.000Z,291.34
2022-08-19T01:13:58.000Z,291.34
2022-08-19T01:15:25.000Z,291.34
2022-08-19T01:17:31.000Z,291.34
2022-08-19T01:18:57.000Z,291.4
2022-08-19T01:21:03.000Z,291.4
2022-08-19T01:22:30.000Z,291.34
2022-08-19T01:24:38.000Z,291.4
2022-08-19T01:26:14.000Z,291.46
2022-08-19T01:28:20.000Z,291.46
2022-08-19T01:30:04.000Z,291.46
2022-08-19T01:33:43.000Z,291.46
2022-08-19T01:34:17.000Z,291.46
2022-08-19T01:35:44.000Z,291.46
2022-08-19T01:37:50.000Z,291.52
2022-08-19T01:39:16.000Z,291.52
2022-08-19T01:41:22.000Z,291.52
2022-08-19T01:44:07.000Z,291.52
2022-08-19T01:45:42.000Z,291.52
2022-08-19T01:47:48.000Z,291.52
2022-08-19T01:49:26.000Z,291.59
2022-08-19T01:51:32.000Z,291.59
2022-08-19T01:53:04.000Z,291.59
2022-08-19T01:55:12.000Z,291.59
2022-08-19T01:56:38.000Z,291.59
2022-08-19T01:58:44.000Z,291.59
2022-08-19T02:00:11.000Z,291.59
2022-08-19T02:02:17.000Z,291.59
2022-08-19T02:03:43.000Z,291.59
2022-08-19T02:05:49.000Z,291.59
2022-08-19T02:07:16.000Z,291.65
2022-08-19T02:09:22.000Z,291.65
2022-08-19T02:10:49.000Z,291.65
2022-08-19T02:12:55.000Z,291.65
2022-08-19T02:14:21.000Z,291.59
2022-08-19T02:16:27.000Z,291.59
2022-08-19T02:17:54.000Z,291.59
2022-08-19T02:20:00.000Z,291.59
2022-08-19T02:22:51.000Z,291.59
2022-08-19T02:24:18.000Z,291.59
2022-08-19T02:26:25.000Z,291.59
2022-08-19T02:27:51.000Z,291.65
2022-08-19T02:31:23.000Z,291.65
2022-08-19T02:33:29.000Z,291.65
2022-08-19T02:34:56.000Z,291.65
2022-08-19T02:37:02.000Z,291.65
2022-08-19T02:38:29.000Z,291.65
2022-08-19T02:40:35.000Z,291.65
2022-08-19T02:42:01.000Z,291.65
2022-08-19T02:44:07.000Z,291.65
2022-08-19T02:45:55.000Z,291.65
2022-08-19T02:48:02.000Z,291.65
2022-08-19T02:49:42.000Z,291.59
2022-08-19T02:51:48.000Z,291.59
2022-08-19T02:53:15.000Z,291.65
2022-08-19T02:55:21.000Z,291.65
2022-08-19T02:56:47.000Z,291.59
2022-08-19T02:58:53.000Z,291.59
2022-08-19T03:01:44.000Z,291.59
2022-08-19T03:03:11.000Z,291.59
2022-08-19T03:05:17.000Z,291.59
2022-08-19T03:07:11.000Z,291.65
2022-08-19T03:09:17.000Z,291.65
2022-08-19T03:10:43.000Z,291.65
2022-08-19T03:12:49.000Z,291.65
2022-08-19T03:14:16.000Z,291.65
2022-08-19T03:16:22.000Z,291.65
2022-08-19T03:17:49.000Z,291.65
2022-08-19T03:19:55.000Z,291.65
2022-08-19T03:21:21.000Z,291.65
2022-08-19T03:23:27.000Z,291.65
2022-08-19T03:24:54.000Z,291.59
2022-08-19T03:27:00.000Z,291.65
2022-08-19T03:28:27.000Z,291.65
2022-08-19T03:30:33.000Z,291.65
2022-08-19T03:31:59.000Z,291.65
2022-08-19T03:34:08.000Z,291.65
2022-08-19T03:35:36.000Z,291.71
2022-08-19T03:37:42.000Z,291.71
2022-08-19T03:40:33.000Z,291.65
2022-08-19T03:42:00.000Z,291.65
2022-08-19T03:44:53.000Z,291.65
2022-08-19T03:46:19.000Z,291.71
2022-08-19T03:48:25.000Z,291.71
2022-08-19T03:49:52.000Z,291.71
2022-08-19T03:51:58.000Z,291.71
2022-08-19T03:53:24.000Z,291.71
2022-08-19T03:55:30.000Z,291.71
2022-08-19T03:56:57.000Z,291.71
2022-08-19T03:59:03.000Z,291.65
2022-08-19T04:00:30.000Z,291.65
2022-08-19T04:02:36.000Z,291.65
2022-08-19T04:04:02.000Z,291.71
2022-08-19T04:06:09.000Z,291.65
2022-08-19T04:07:35.000Z,291.71
2022-08-19T04:09:41.000Z,291.65
2022-08-19T04:11:08.000Z,291.65
2022-08-19T04:13:14.000Z,291.59
2022-08-19T04:14:40.000Z,291.59
2022-08-19T04:16:47.000Z,291.59
2022-08-19T04:19:38.000Z,291.59
2022-08-19T04:21:04.000Z,291.59
2022-08-19T04:23:11.000Z,291.59
2022-08-19T04:24:37.000Z,291.59
2022-08-19T04:26:43.000Z,291.59
2022-08-19T04:28:10.000Z,291.59
2022-08-19T04:30:16.000Z,291.65
2022-08-19T04:31:42.000Z,291.59
2022-08-19T04:33:48.000Z,291.59
2022-08-19T04:35:15.000Z,291.59
2022-08-19T04:37:26.000Z,291.52
2022-08-19T04:39:00.000Z,291.52
2022-08-19T04:41:06.000Z,291.52
2022-08-19T04:42:32.000Z,291.52
2022-08-19T04:44:38.000Z,291.46
2022-08-19T04:46:10.000Z,291.52
2022-08-19T04:48:42.000Z,291.46
2022-08-19T04:50:14.000Z,291.52
2022-08-19T04:52:20.000Z,291.46
2022-08-19T04:53:47.000Z,291.46
2022-08-19T04:55:53.000Z,291.52
2022-08-19T04:58:44.000Z,291.52
2022-08-19T05:00:10.000Z,291.52
2022-08-19T05:02:16.000Z,291.52
2022-08-19T05:03:43.000Z,291.52
2022-08-19T05:05:49.000Z,291.52
2022-08-19T05:07:15.000Z,291.52
2022-08-19T05:09:22.000Z,291.59
2022-08-19T05:10:48.000Z,291.59
2022-08-19T05:12:54.000Z,291.59
2022-08-19T05:14:21.000Z,291.59
2022-08-19T05:16:27.000Z,291.59
2022-08-19T05:17:53.000Z,291.59
2022-08-19T05:19:59.000Z,291.65
2022-08-19T05:21:26.000Z,291.65
2022-08-19T05:23:32.000Z,291.65
2022-08-19T05:24:59.000Z,291.65
2022-08-19T05:27:17.000Z,291.71
2022-08-19T05:28:44.000Z,291.71
2022-08-19T05:30:50.000Z,291.71
2022-08-19T05:32:16.000Z,291.71
2022-08-19T05:34:22.000Z,291.77
2022-08-19T05:37:14.000Z,291.71
2022-08-19T05:38:40.000Z,291.77
2022-08-19T05:40:47.000Z,291.77
2022-08-19T05:42:13.000Z,291.77
2022-08-19T05:44:19.000Z,291.77
2022-08-19T05:45:46.000Z,291.77
2022-08-19T05:47:52.000Z,291.77
2022-08-19T05:49:18.000Z,291.77
2022-08-19T05:51:25.000Z,291.77
2022-08-19T05:52:53.000Z,291.84
2022-08-19T05:54:59.000Z,291.77
2022-08-19T05:56:26.000Z,291.84
2022-08-19T05:58:32.000Z,291.77
2022-08-19T05:59:59.000Z,291.84
2022-08-19T06:02:05.000Z,291.84
2022-08-19T06:03:32.000Z,291.84
2022-08-19T06:05:38.000Z,291.84
2022-08-19T06:07:16.000Z,291.9
2022-08-19T06:09:22.000Z,291.9
2022-08-19T06:10:49.000Z,291.96
2022-08-19T06:12:55.000Z,291.96
2022-08-19T06:15:46.000Z,292.02
2022-08-19T06:17:13.000Z,292.09
2022-08-19T06:19:19.000Z,292.09
2022-08-19T06:20:46.000Z,292.15
2022-08-19T06:23:00.000Z,292.15
2022-08-19T06:24:26.000Z,292.21
2022-08-19T06:26:32.000Z,292.21
2022-08-19T06:27:59.000Z,292.21
2022-08-19T06:30:19.000Z,292.21
2022-08-19T06:31:46.000Z,292.27
2022-08-19T06:33:52.000Z,292.27
2022-08-19T06:35:19.000Z,292.27
2022-08-19T06:37:25.000Z,292.27
2022-08-19T06:38:51.000Z,292.34
2022-08-19T06:40:57.000Z,292.4
2022-08-19T06:42:24.000Z,292.4
2022-08-19T06:44:30.000Z,292.4
2022-08-19T06:45:57.000Z,292.46
2022-08-19T06:48:03.000Z,292.46
2022-08-19T06:49:30.000Z,292.46
2022-08-19T06:51:36.000Z,292.52
2022-08-19T06:54:33.000Z,292.52
2022-08-19T06:56:20.000Z,292.59
2022-08-19T06:58:26.000Z,292.65
2022-08-19T06:59:56.000Z,292.65
2022-08-19T07:02:02.000Z,292.65
2022-08-19T07:03:28.000Z,292.65
2022-08-19T07:05:36.000Z,292.65
2022-08-19T07:07:04.000Z,292.65
2022-08-19T07:09:24.000Z,292.71
2022-08-19T07:10:50.000Z,292.71
2022-08-19T07:12:57.000Z,292.71
2022-08-19T07:14:23.000Z,292.71
2022-08-19T07:16:29.000Z,292.77
2022-08-19T07:17:56.000Z,292.77
2022-08-19T07:20:02.000Z,292.84
2022-08-19T07:21:31.000Z,292.84
2022-08-19T07:23:41.000Z,292.84
2022-08-19T07:25:08.000Z,292.84
2022-08-19T07:27:14.000Z,292.84
2022-08-19T07:28:40.000Z,292.84
2022-08-19T07:30:55.000Z,292.84
2022-08-19T07:33:46.000Z,292.96
2022-08-19T07:35:12.000Z,293.02
2022-08-19T07:37:19.000Z,293.02
2022-08-19T07:38:45.000Z,293.02
2022-08-19T07:40:51.000Z,293.09
2022-08-19T07:42:18.000Z,293.09
2022-08-19T07:44:24.000Z,293.09
2022-08-19T07:45:51.000Z,293.15
2022-08-19T07:47:57.000Z,293.21
2022-08-19T07:49:24.000Z,293.21
2022-08-19T07:51:30.000Z,293.15
2022-08-19T07:53:01.000Z,293.21
2022-08-19T07:55:07.000Z,293.27
2022-08-19T07:57:07.000Z,293.27
2022-08-19T07:59:13.000Z,293.27
2022-08-19T08:00:39.000Z,293.34
2022-08-19T08:02:46.000Z,293.4
2022-08-19T08:04:14.000Z,293.4
2022-08-19T08:06:20.000Z,293.46
2022-08-19T08:07:46.000Z,293.46
2022-08-19T08:12:45.000Z,293.4
2022-08-19T08:14:33.000Z,293.4
2022-08-19T08:16:39.000Z,293.4
2022-08-19T08:18:11.000Z,293.46
2022-08-19T08:20:18.000Z,293.46
2022-08-19T08:21:45.000Z,293.46
2022-08-19T08:23:51.000Z,293.52
2022-08-19T08:25:20.000Z,293.52
2022-08-19T08:27:26.000Z,293.52
2022-08-19T08:28:57.000Z,293.59
2022-08-19T08:31:03.000Z,293.59
2022-08-19T08:32:34.000Z,293.65
2022-08-19T08:34:42.000Z,293.71
2022-08-19T08:36:08.000Z,293.71
2022-08-19T08:38:14.000Z,293.77
2022-08-19T08:39:41.000Z,293.77
2022-08-19T08:41:47.000Z,293.84
2022-08-19T08:43:14.000Z,293.84
2022-08-19T08:45:20.000Z,293.84
2022-08-19T08:46:47.000Z,293.9
2022-08-19T08:48:57.000Z,293.96
2022-08-19T08:51:48.000Z,294.02
2022-08-19T08:53:24.000Z,294.09
2022-08-19T08:55:34.000Z,294.15
2022-08-19T08:57:01.000Z,294.15
2022-08-19T08:59:07.000Z,294.15
2022-08-19T09:00:34.000Z,294.15
2022-08-19T09:02:40.000Z,294.21
2022-08-19T09:04:08.000Z,294.21
2022-08-19T09:06:14.000Z,294.27
2022-08-19T09:07:41.000Z,294.27
2022-08-19T09:09:51.000Z,294.27
2022-08-19T09:11:20.000Z,294.34
2022-08-19T09:13:48.000Z,294.34
2022-08-19T09:15:15.000Z,294.4
2022-08-19T09:17:21.000Z,294.4
2022-08-19T09:18:48.000Z,294.46
2022-08-19T09:20:54.000Z,294.52
2022-08-19T09:22:21.000Z,294.59
2022-08-19T09:24:31.000Z,294.65
2022-08-19T09:25:57.000Z,294.84
2022-08-19T09:28:03.000Z,295.09
2022-08-19T09:31:11.000Z,295.34
2022-08-19T09:32:38.000Z,295.46
2022-08-19T09:34:44.000Z,295.59
2022-08-19T09:36:15.000Z,295.71
2022-08-19T09:38:39.000Z,295.84
2022-08-19T09:40:08.000Z,295.9
2022-08-19T09:42:16.000Z,295.96
2022-08-19T09:43:55.000Z,295.96
2022-08-19T09:46:01.000Z,296.09
2022-08-19T09:47:27.000Z,296.21
2022-08-19T09:49:35.000Z,296.27
2022-08-19T09:51:03.000Z,296.27
2022-08-19T09:53:09.000Z,296.27
2022-08-19T09:54:35.000Z,296.4
2022-08-19T09:56:42.000Z,296.4
2022-08-19T09:58:08.000Z,296.46
2022-08-19T10:00:14.000Z,296.59
2022-08-19T10:01:41.000Z,296.71
2022-08-19T10:03:47.000Z,296.71
2022-08-19T10:05:14.000Z,296.71
2022-08-19T10:07:27.000Z,296.77
2022-08-19T10:10:25.000Z,296.84
2022-08-19T10:11:51.000Z,296.9
2022-08-19T10:13:58.000Z,297.02
2022-08-19T10:15:25.000Z,297.09
2022-08-19T10:17:33.000Z,296.96
2022-08-19T10:19:01.000Z,297.02
2022-08-19T10:21:10.000Z,297.15
2022-08-19T10:22:36.000Z,297.27
2022-08-19T10:24:42.000Z,297.15
2022-08-19T10:26:09.000Z,297.09
2022-08-19T10:28:15.000Z,297.09
2022-08-19T10:29:44.000Z,297.15
2022-08-19T10:31:50.000Z,297.09
2022-08-19T10:33:26.000Z,297.15
2022-08-19T10:35:57.000Z,297.21
2022-08-19T10:37:24.000Z,297.34
2022-08-19T10:39:36.000Z,297.52
2022-08-19T10:41:08.000Z,297.71
2022-08-19T10:43:14.000Z,298.02
2022-08-19T10:44:40.000Z,298.09
2022-08-19T10:46:47.000Z,298.09
2022-08-19T10:49:39.000Z,297.9
2022-08-19T10:51:05.000Z,297.84
2022-08-19T10:53:12.000Z,297.59
2022-08-19T10:54:38.000Z,297.59
2022-08-19T10:56:44.000Z,297.9
2022-08-19T10:58:11.000Z,298.09
2022-08-19T11:00:17.000Z,298.46
2022-08-19T11:01:44.000Z,298.59
2022-08-19T11:03:50.000Z,298.34
2022-08-19T11:05:16.000Z,298.27
2022-08-19T11:07:22.000Z,298.09
2022-08-19T11:08:49.000Z,298.15
2022-08-19T11:10:55.000Z,298.27
2022-08-19T11:12:22.000Z,298.4
2022-08-19T11:14:28.000Z,298.15
2022-08-19T11:15:58.000Z,298.09
2022-08-19T11:18:10.000Z,298.21
2022-08-19T11:19:38.000Z,298.46
2022-08-19T11:23:25.000Z,298.65
2022-08-19T11:25:31.000Z,298.52
2022-08-19T11:28:22.000Z,298.4
2022-08-19T11:29:49.000Z,298.4
2022-08-19T11:31:55.000Z,298.59
2022-08-19T11:33:22.000Z,298.59
2022-08-19T11:35:28.000Z,298.59
2022-08-19T11:36:54.000Z,298.46
2022-08-19T11:39:01.000Z,298.46
2022-08-19T11:40:27.000Z,298.59
2022-08-19T11:42:33.000Z,298.65
2022-08-19T11:44:00.000Z,298.59
2022-08-19T11:46:06.000Z,298.52
2022-08-19T11:47:32.000Z,298.4
2022-08-19T11:49:39.000Z,298.34
2022-08-19T11:51:05.000Z,298.52
2022-08-19T11:53:11.000Z,298.84
2022-08-19T11:54:38.000Z,298.9
2022-08-19T11:56:44.000Z,298.96
2022-08-19T11:58:11.000Z,299.09
2022-08-19T12:00:23.000Z,299.09
2022-08-19T12:01:49.000Z,299.27
2022-08-19T12:03:58.000Z,299.02
2022-08-19T12:06:50.000Z,298.96
2022-08-19T12:08:16.000Z,299.02
2022-08-19T12:10:22.000Z,298.96
2022-08-19T12:11:51.000Z,299.02
2022-08-19T12:13:57.000Z,299.21
2022-08-19T12:15:23.000Z,299.34
2022-08-19T12:17:30.000Z,299.34
2022-08-19T12:18:56.000Z,299.52
2022-08-19T12:21:02.000Z,299.52
2022-08-19T12:22:29.000Z,299.59
2022-08-19T12:24:35.000Z,299.84
2022-08-19T12:26:01.000Z,299.77
2022-08-19T12:28:08.000Z,300.15
2022-08-19T12:29:34.000Z,300.34
2022-08-19T12:31:40.000Z,300.34
2022-08-19T12:33:07.000Z,300.34
2022-08-19T12:35:13.000Z,300.21
2022-08-19T12:36:40.000Z,300.02
2022-08-19T12:38:46.000Z,299.96
2022-08-19T12:40:12.000Z,300.09
2022-08-19T12:42:19.000Z,299.96
2022-08-19T12:45:10.000Z,299.77
2022-08-19T12:46:36.000Z,299.71
2022-08-19T12:48:43.000Z,299.59
2022-08-19T12:50:10.000Z,299.65
2022-08-19T12:52:16.000Z,299.59
2022-08-19T12:53:47.000Z,299.65
2022-08-19T12:55:54.000Z,299.65
2022-08-19T12:57:20.000Z,299.65
2022-08-19T12:59:28.000Z,299.59
2022-08-19T13:00:55.000Z,299.65
2022-08-19T13:03:01.000Z,299.59
2022-08-19T13:04:27.000Z,299.59
2022-08-19T13:06:33.000Z,299.59
2022-08-19T13:08:00.000Z,299.77
2022-08-19T13:10:06.000Z,299.96
2022-08-19T13:11:33.000Z,299.96
2022-08-19T13:13:39.000Z,300.09
2022-08-19T13:15:05.000Z,300.34
2022-08-19T13:17:15.000Z,300.21
2022-08-19T13:18:42.000Z,300.15
2022-08-19T13:20:48.000Z,300.15
2022-08-19T13:23:41.000Z,300.4
2022-08-19T13:25:08.000Z,300.4
2022-08-19T13:27:14.000Z,300.21
2022-08-19T13:28:41.000Z,300.15
2022-08-19T13:30:47.000Z,300.09
2022-08-19T13:32:13.000Z,300.02
2022-08-19T13:34:22.000Z,299.9
2022-08-19T13:35:49.000Z,299.96
2022-08-19T13:37:56.000Z,299.96
2022-08-19T13:39:22.000Z,299.96
2022-08-19T13:41:29.000Z,299.9
2022-08-19T13:42:55.000Z,299.9
2022-08-19T13:45:01.000Z,299.84
2022-08-19T13:46:28.000Z,299.84
2022-08-19T13:48:34.000Z,299.9
2022-08-19T13:50:01.000Z,299.9
2022-08-19T13:52:07.000Z,299.9
2022-08-19T13:53:33.000Z,299.71
2022-08-19T13:55:40.000Z,299.77
2022-08-19T13:57:06.000Z,299.71
2022-08-19T13:59:12.000Z,299.71
2022-08-19T14:02:03.000Z,299.71
2022-08-19T14:03:30.000Z,299.77
2022-08-19T14:05:36.000Z,299.84
2022-08-19T14:07:03.000Z,299.84
2022-08-19T14:09:09.000Z,299.71
2022-08-19T14:10:35.000Z,299.59
2022-08-19T14:12:41.000Z,299.4
2022-08-19T14:14:08.000Z,299.52
2022-08-19T14:16:20.000Z,299.59
2022-08-19T14:17:46.000Z,299.46
2022-08-19T14:19:53.000Z,299.34
2022-08-19T14:21:19.000Z,299.4
2022-08-19T14:23:25.000Z,299.4
2022-08-19T14:24:52.000Z,299.46
2022-08-19T14:26:58.000Z,299.52
2022-08-19T14:28:25.000Z,299.4
2022-08-19T14:30:32.000Z,299.27
2022-08-19T14:31:59.000Z,299.4
2022-08-19T14:34:05.000Z,299.27
2022-08-19T14:35:31.000Z,299.34
2022-08-19T14:37:37.000Z,299.34
2022-08-19T14:40:34.000Z,299.4
2022-08-19T14:42:01.000Z,299.4
2022-08-19T14:44:12.000Z,299.4
2022-08-19T14:45:38.000Z,299.46
2022-08-19T14:47:45.000Z,299.4
2022-08-19T14:49:12.000Z,299.46
2022-08-19T14:51:18.000Z,299.34
2022-08-19T14:52:44.000Z,299.27
2022-08-19T14:54:51.000Z,299.52
2022-08-19T14:56:18.000Z,299.71
2022-08-19T14:58:24.000Z,299.71
2022-08-19T14:59:54.000Z,299.77
2022-08-19T15:02:00.000Z,299.9
2022-08-19T15:03:59.000Z,300.15
2022-08-19T15:06:05.000Z,300.21
2022-08-19T15:07:32.000Z,300.15
2022-08-19T15:09:38.000Z,300.02
2022-08-19T15:11:05.000Z,300.27
2022-08-19T15:13:11.000Z,300.34
2022-08-19T15:14:37.000Z,300.34
2022-08-19T15:16:44.000Z,300.34
2022-08-19T15:19:35.000Z,300.27
2022-08-19T15:21:01.000Z,300.34
2022-08-19T15:23:07.000Z,300.21
2022-08-19T15:24:34.000Z,300.21
2022-08-19T15:26:52.000Z,300.21
2022-08-19T15:28:18.000Z,300.09
2022-08-19T15:30:24.000Z,300.02
2022-08-19T15:31:51.000Z,299.84
2022-08-19T15:33:58.000Z,299.9
2022-08-19T15:35:25.000Z,299.9
2022-08-19T15:37:31.000Z,299.84
2022-08-19T15:39:02.000Z,299.84
2022-08-19T15:41:08.000Z,299.71
2022-08-19T15:42:35.000Z,299.77
2022-08-19T15:44:42.000Z,299.65
2022-08-19T15:46:08.000Z,299.52
2022-08-19T15:48:21.000Z,299.34
2022-08-19T15:49:47.000Z,299.34
2022-08-19T15:51:53.000Z,299.27
2022-08-19T15:53:20.000Z,299.21
2022-08-19T15:55:26.000Z,299.21
2022-08-19T15:58:23.000Z,299.27
2022-08-19T15:59:53.000Z,299.27
2022-08-19T16:02:03.000Z,299.27
2022-08-19T16:03:34.000Z,299.34
2022-08-19T16:05:45.000Z,299.34
2022-08-19T16:07:11.000Z,299.34
2022-08-19T16:09:18.000Z,299.4
2022-08-19T16:10:51.000Z,299.4
2022-08-19T16:12:57.000Z,299.27
2022-08-19T16:14:24.000Z,299.34
2022-08-19T16:16:30.000Z,299.21
2022-08-19T16:17:58.000Z,299.21
2022-08-19T16:20:04.000Z,299.21
2022-08-19T16:21:31.000Z,299.21
2022-08-19T16:23:37.000Z,299.21
2022-08-19T16:25:03.000Z,299.21
2022-08-19T16:27:10.000Z,299.21
2022-08-19T16:28:36.000Z,299.21
2022-08-19T16:30:42.000Z,299.15
2022-08-19T16:32:15.000Z,299.15
2022-08-19T16:34:21.000Z,299.09
2022-08-19T16:37:12.000Z,299.02
2022-08-19T16:38:39.000Z,299.02
2022-08-19T16:40:45.000Z,298.96
2022-08-19T16:42:12.000Z,298.84
2022-08-19T16:44:18.000Z,298.9
2022-08-19T16:45:44.000Z,298.9
2022-08-19T16:47:51.000Z,298.9
2022-08-19T16:49:17.000Z,298.9
2022-08-19T16:51:58.000Z,298.84
2022-08-19T16:53:25.000Z,298.77
2022-08-19T16:55:35.000Z,298.65
2022-08-19T16:57:01.000Z,298.59
2022-08-19T16:59:08.000Z,298.52
2022-08-19T17:00:34.000Z,298.52
2022-08-19T17:02:40.000Z,298.46
2022-08-19T17:04:07.000Z,298.46
2022-08-19T17:06:13.000Z,298.4
2022-08-19T17:07:45.000Z,298.4
2022-08-19T17:09:51.000Z,298.34
2022-08-19T17:11:19.000Z,298.34
2022-08-19T17:13:25.000Z,298.27
2022-08-19T17:16:17.000Z,298.21
2022-08-19T17:17:43.000Z,298.15
2022-08-19T17:19:49.000Z,298.09
2022-08-19T17:23:22.000Z,298.09
2022-08-19T17:25:08.000Z,297.9
2022-08-19T17:27:14.000Z,297.9
2022-08-19T17:28:40.000Z,297.9
2022-08-19T17:30:49.000Z,297.77
2022-08-19T17:32:15.000Z,297.65
2022-08-19T17:34:29.000Z,297.52
2022-08-19T17:35:55.000Z,297.59
2022-08-19T17:38:02.000Z,297.46
2022-08-19T17:39:28.000Z,297.34
2022-08-19T17:41:41.000Z,297.27
2022-08-19T17:43:07.000Z,297.15
2022-08-19T17:45:13.000Z,297.09
2022-08-19T17:46:40.000Z,296.9
2022-08-19T17:48:46.000Z,296.84
2022-08-19T17:50:16.000Z,296.71
2022-08-19T17:52:22.000Z,296.52
2022-08-19T17:55:14.000Z,296.4
2022-08-19T17:56:40.000Z,296.46
2022-08-19T17:58:46.000Z,296.4
2022-08-19T18:00:25.000Z,296.4
2022-08-19T18:02:32.000Z,296.34
2022-08-19T18:03:59.000Z,296.21
2022-08-19T18:06:05.000Z,296.09
2022-08-19T18:07:32.000Z,296.09
2022-08-19T18:09:38.000Z,296.02
2022-08-19T18:11:07.000Z,295.9
2022-08-19T18:13:13.000Z,295.84
2022-08-19T18:14:42.000Z,295.84
2022-08-19T18:16:48.000Z,295.9
2022-08-19T18:18:15.000Z,295.84
2022-08-19T18:20:21.000Z,295.77
2022-08-19T18:21:48.000Z,295.84
2022-08-19T18:23:54.000Z,295.71
2022-08-19T18:25:26.000Z,295.65
2022-08-19T18:27:32.000Z,295.46
2022-08-19T18:28:59.000Z,295.52
2022-08-19T18:31:05.000Z,295.4
2022-08-19T18:33:57.000Z,295.27
2022-08-19T18:35:23.000Z,295.34
2022-08-19T18:37:29.000Z,295.21
2022-08-19T18:38:56.000Z,295.15
2022-08-19T18:41:02.000Z,295.09
2022-08-19T18:42:28.000Z,295.02
2022-08-19T18:44:35.000Z,294.71
2022-08-19T18:46:01.000Z,294.65
2022-08-19T18:48:11.000Z,294.59
2022-08-19T18:49:52.000Z,294.52
2022-08-19T18:51:58.000Z,294.4
2022-08-19T18:53:25.000Z,294.34
2022-08-19T18:55:31.000Z,294.34
2022-08-19T18:56:58.000Z,294.27
2022-08-19T18:59:07.000Z,294.15
2022-08-19T19:00:33.000Z,294.09
2022-08-19T19:02:40.000Z,294.09
2022-08-19T19:04:06.000Z,294.02
2022-08-19T19:06:12.000Z,293.9
2022-08-19T19:07:39.000Z,293.84
2022-08-19T19:09:45.000Z,293.84
2022-08-19T19:12:36.000Z,293.84
2022-08-19T19:14:03.000Z,293.84
2022-08-19T19:16:09.000Z,293.77
2022-08-19T19:17:36.000Z,293.77
2022-08-19T19:19:43.000Z,293.71
2022-08-19T19:21:09.000Z,293.71
2022-08-19T19:23:15.000Z,293.65
2022-08-19T19:24:42.000Z,293.65
2022-08-19T19:26:48.000Z,293.71
2022-08-19T19:28:15.000Z,293.65
2022-08-19T19:30:21.000Z,293.65
2022-08-19T19:31:47.000Z,293.65
2022-08-19T19:33:53.000Z,293.65
2022-08-19T19:35:20.000Z,293.65
2022-08-19T19:37:26.000Z,293.52
2022-08-19T19:38:52.000Z,293.59
2022-08-19T19:40:59.000Z,293.59
2022-08-19T19:42:25.000Z,293.52
2022-08-19T19:44:31.000Z,293.46
2022-08-19T19:45:58.000Z,293.52
2022-08-19T19:48:04.000Z,293.4
2022-08-19T19:50:56.000Z,293.21
2022-08-19T19:52:22.000Z,293.21
2022-08-19T19:54:28.000Z,293.27
2022-08-19T19:55:55.000Z,293.27
2022-08-19T19:58:01.000Z,293.21
2022-08-19T19:59:27.000Z,293.27
2022-08-19T20:01:34.000Z,293.27
2022-08-19T20:03:00.000Z,293.34
2022-08-19T20:05:06.000Z,293.27
2022-08-19T20:06:33.000Z,293.27
2022-08-19T20:08:39.000Z,293.27
2022-08-19T20:10:05.000Z,293.27
2022-08-19T20:12:12.000Z,293.27
2022-08-19T20:13:38.000Z,293.27
2022-08-19T20:15:44.000Z,293.27
2022-08-19T20:17:11.000Z,293.34
2022-08-19T20:19:17.000Z,293.27
2022-08-19T20:20:44.000Z,293.34
2022-08-19T20:22:50.000Z,293.34
2022-08-19T20:24:16.000Z,293.27
2022-08-19T20:26:22.000Z,293.15
2022-08-19T20:29:22.000Z,293.09
2022-08-19T20:31:06.000Z,293.09
2022-08-19T20:33:12.000Z,293.21
2022-08-19T20:34:38.000Z,293.21
2022-08-19T20:36:44.000Z,293.21
2022-08-19T20:38:11.000Z,293.27
2022-08-19T20:40:17.000Z,293.34
2022-08-19T20:41:46.000Z,293.27
2022-08-19T20:43:52.000Z,293.21
2022-08-19T20:45:19.000Z,293.21
2022-08-19T20:47:37.000Z,293.15
2022-08-19T20:49:04.000Z,293.15
2022-08-19T20:51:10.000Z,293.09
2022-08-19T20:52:37.000Z,293.02
2022-08-19T20:54:43.000Z,293.02
2022-08-19T20:56:09.000Z,293.02
2022-08-19T20:58:18.000Z,293.02
2022-08-19T20:59:44.000Z,292.96
2022-08-19T21:01:51.000Z,293.02
2022-08-19T21:03:17.000Z,293.02
2022-08-19T21:05:23.000Z,292.9
2022-08-19T21:08:19.000Z,292.77
2022-08-19T21:09:46.000Z,292.84
2022-08-19T21:11:52.000Z,292.9
2022-08-19T21:13:18.000Z,292.77
2022-08-19T21:15:24.000Z,292.65
2022-08-19T21:16:51.000Z,292.65
2022-08-19T21:18:57.000Z,292.71
2022-08-19T21:20:24.000Z,292.65
2022-08-19T21:22:30.000Z,292.52
2022-08-19T21:23:56.000Z,292.46
2022-08-19T21:26:02.000Z,292.46
2022-08-19T21:27:29.000Z,292.46
2022-08-19T21:29:35.000Z,292.4
2022-08-19T21:31:02.000Z,292.52
2022-08-19T21:33:08.000Z,292.59
2022-08-19T21:34:34.000Z,292.59
2022-08-19T21:36:40.000Z,292.46
2022-08-19T21:38:07.000Z,292.46
2022-08-19T21:40:13.000Z,292.27
2022-08-19T21:41:40.000Z,292.27
2022-08-19T21:43:47.000Z,292.21
2022-08-19T21:46:39.000Z,292.15
2022-08-19T21:48:05.000Z,292.15
2022-08-19T21:50:11.000Z,292.15
2022-08-19T21:51:38.000Z,292.09
2022-08-19T21:53:44.000Z,292.02
2022-08-19T21:55:13.000Z,292.09
2022-08-19T21:57:19.000Z,292.02
2022-08-19T21:58:45.000Z,291.96
2022-08-19T22:00:51.000Z,291.9
2022-08-19T22:02:19.000Z,291.96
2022-08-19T22:04:26.000Z,291.9
2022-08-19T22:05:52.000Z,291.96
2022-08-19T22:07:58.000Z,291.77
2022-08-19T22:09:25.000Z,291.77
2022-08-19T22:11:31.000Z,291.71
2022-08-19T22:12:58.000Z,291.65
2022-08-19T22:15:04.000Z,291.77
2022-08-19T22:16:30.000Z,291.71
2022-08-19T22:18:36.000Z,291.77
2022-08-19T22:20:03.000Z,291.71
2022-08-19T22:22:10.000Z,291.65
2022-08-19T22:25:01.000Z,291.46
2022-08-19T22:26:28.000Z,291.52
2022-08-19T22:28:34.000Z,291.52
2022-08-19T22:30:00.000Z,291.52
2022-08-19T22:32:08.000Z,291.46
2022-08-19T22:33:53.000Z,291.52
2022-08-19T22:35:59.000Z,291.4
2022-08-19T22:37:25.000Z,291.34
2022-08-19T22:39:31.000Z,291.27
2022-08-19T22:40:58.000Z,291.27
2022-08-19T22:43:04.000Z,291.34
2022-08-19T22:44:31.000Z,291.27
2022-08-19T22:46:37.000Z,291.21
2022-08-19T22:48:03.000Z,291.21
2022-08-19T22:50:09.000Z,291.15
2022-08-19T22:51:38.000Z,291.15
2022-08-19T22:53:44.000Z,291.02
2022-08-19T22:55:11.000Z,291.02
2022-08-19T22:57:21.000Z,290.9
2022-08-19T22:58:48.000Z,290.84
2022-08-19T23:00:54.000Z,290.84
2022-08-19T23:03:45.000Z,290.77
2022-08-19T23:05:12.000Z,290.77
2022-08-19T23:07:18.000Z,290.77
2022-08-19T23:08:48.000Z,290.77
2022-08-19T23:10:54.000Z,290.71
2022-08-19T23:12:20.000Z,290.65
2022-08-19T23:14:27.000Z,290.52